Flight Track Log - Related Links

Times and Time Zones

All times are in EDT time to prevent confusion due to time zone crossing. See the EJA930 flight status page for this flight to view local times or setup timezone preferences in your user account.

Time Position Orientation Groundspeed Altitude Reporting Facility
EDT Latitude Longitude Course Direction KTS MPH feet Rate Location/Type
Sat 11:01:04 AM 34.7658 -92.2514 272° West 225 259 2,300  Level Kansas City Center
Sat 11:02:06 AM 34.7681 -92.3278 272° West 224 258 5,200 2,903 Climbing Kansas City Center
Sat 11:03:08 AM 34.7814 -92.4128 281° West 243 280 8,300 2,613 Climbing Kansas City Center
Sat 11:04:10 AM 34.8158 -92.4958 297° West 263 303 10,600 1,610 Climbing Kansas City Center
Sat 11:05:11 AM 34.8672 -92.6114 298° West 303 349 11,600 1,210 Climbing Kansas City Center
Sat 11:06:14 AM 34.9119 -92.7197 297° West 332 382 13,100 1,317 Climbing Memphis Center
Sat 11:07:14 AM 34.9581 -92.8275 298° West 351 404 14,300 1,200 Climbing Memphis Center
Sat 11:08:14 AM 35.0036 -92.9378 297° West 351 404 15,500 1,250 Climbing Memphis Center
Sat 11:09:14 AM 35.0514 -93.0508 297° West 362 417 16,800 1,050 Climbing Memphis Center
Sat 11:10:14 AM 35.0989 -93.1642 297° West 367 422 17,600 850 Climbing Memphis Center
Sat 11:11:14 AM 35.1422 -93.2747 296° West 381 438 18,500 1,150 Climbing Memphis Center
Sat 11:12:14 AM 35.1978 -93.3986 299° West 387 445 19,900 1,300 Climbing Memphis Center
Sat 11:13:14 AM 35.2469 -93.5225 296° West 392 451 21,100 1,100 Climbing Memphis Center
Sat 11:14:14 AM 35.2919 -93.6283 298° West 392 451 22,100 1,150 Climbing Memphis Center
Sat 11:15:14 AM 35.3408 -93.7525 296° West 392 451 23,400 1,350 Climbing Memphis Center
Sat 11:16:14 AM 35.3917 -93.8742 297° West 392 451 24,800 1,350 Climbing Memphis Center
Sat 11:17:14 AM 35.4444 -94.0014 297° West 402 463 26,100 1,300 Climbing Memphis Center
Sat 11:18:14 AM 35.4969 -94.1311 296° West 412 474 27,400 1,300 Climbing Memphis Center
Sat 11:19:14 AM 35.5492 -94.2586 297° West 417 480 28,700 1,350 Climbing Memphis Center
Sat 11:20:14 AM 35.6011 -94.3939 295° West 423 487 30,100 1,550 Climbing Memphis Center
Sat 11:21:14 AM 35.6597 -94.5192 300° West 428 493 31,800 2,100 Climbing Memphis Center
Sat 11:22:14 AM 35.7203 -94.6400 302° West 423 487 34,300 2,250 Climbing Memphis Center
Sat 11:23:14 AM 35.7767 -94.7556 301° West 411 473 36,300 1,900 Climbing Memphis Center
Sat 11:24:14 AM 35.8286 -94.8733 299° West 404 465 38,100 1,705 Climbing Memphis Center
Sat 11:24:49 AM 35.8614 -94.9486 298° West 395 455 39,000 1,175 Climbing Kansas City Center
Sat 11:25:51 AM 35.9086 -95.0717 295° West 396 456 40,000 484 Climbing Kansas City Center
Sat 11:26:53 AM 35.9606 -95.2022 296° West 414 476 40,000  Level Kansas City Center
Sat 11:27:55 AM 36.0139 -95.3417 295° West 438 504 40,000  Level Kansas City Center
Sat 11:28:57 AM 36.0756 -95.5064 295° West 451 519 40,000  Level Kansas City Center
Sat 11:29:59 AM 36.1300 -95.6475 296° West 455 524 40,000  Level Kansas City Center
Sat 11:31:01 AM 36.1883 -95.8008 295° West 455 524 40,000  Level Kansas City Center
Sat 11:32:03 AM 36.2422 -95.9428 295° West 453 521 40,000  Level Kansas City Center
Sat 11:33:05 AM 36.2964 -96.0861 295° West 455 524 40,000  Level Kansas City Center
Sat 11:34:07 AM 36.3506 -96.2300 295° West 458 527 40,000  Level Kansas City Center
Sat 11:35:09 AM 36.4022 -96.3736 294° West 455 524 40,000  Level Kansas City Center
Sat 11:36:11 AM 36.4436 -96.5239 289° West 458 527 40,000  Level Kansas City Center
Sat 11:37:13 AM 36.4850 -96.6744 289° West 459 528 40,000  Level Kansas City Center
Sat 11:38:15 AM 36.5275 -96.8319 289° West 458 527 40,000  Level Kansas City Center
Sat 11:39:17 AM 36.5683 -96.9819 289° West 460 529 40,000 339 Level Kansas City Center
Sat 11:40:19 AM 36.6172 -97.1636 289° West 463 533 40,700 484 Climbing Kansas City Center
Sat 11:41:21 AM 36.6569 -97.3125 288° West 460 529 41,000 145 Climbing Kansas City Center
Sat 11:42:23 AM 36.6942 -97.4539 288° West 458 527 41,000  Level Kansas City Center
Sat 11:43:25 AM 36.7347 -97.6069 288° West 461 531 41,000  Level Kansas City Center
Sat 11:44:27 AM 36.7792 -97.7794 288° West 465 535 41,000  Level Kansas City Center
Sat 11:45:29 AM 36.8422 -97.9350 297° West 464 534 41,000  Level Kansas City Center
Sat 11:46:32 AM 36.9022 -98.0769 298° West 462 532 41,000  Level Kansas City Center
Sat 11:47:34 AM 36.9622 -98.2192 298° West 462 532 41,000  Level Kansas City Center
Sat 11:48:36 AM 37.0214 -98.3606 298° West 459 528 41,000  Level Kansas City Center
Sat 11:49:38 AM 37.0819 -98.5031 298° West 461 531 41,000  Level Kansas City Center
Sat 11:50:40 AM 37.1397 -98.6425 297° West 454 522 41,000  Level Kansas City Center
Sat 11:51:42 AM 37.1994 -98.7872 297° West 461 531 41,000  Level Kansas City Center
Sat 11:52:44 AM 37.2686 -98.9547 297° West 454 522 41,000  Level Kansas City Center
Sat 11:53:46 AM 37.3261 -99.0972 297° West 454 522 41,000  Level Kansas City Center
Sat 11:54:48 AM 37.3850 -99.2381 298° West 454 522 41,000  Level Kansas City Center
Sat 11:55:50 AM 37.4428 -99.3811 297° West 457 526 41,000  Level Kansas City Center
Sat 11:56:52 AM 37.5075 -99.5414 297° West 455 524 41,000  Level Kansas City Center
Sat 11:57:54 AM 37.5619 -99.6778 297° West 456 525 41,000  Level Kansas City Center
Sat 11:58:56 AM 37.6267 -99.8378 297° West 459 528 41,000  Level Kansas City Center
Sat 11:59:58 AM 37.6814 -99.9742 297° West 457 526 41,000  Level Kansas City Center
Sat 12:01:00 PM 37.7456 -100.1342 297° West 458 527 41,000  Level Kansas City Center
Sat 12:02:02 PM 37.8000 -100.2706 297° West 457 526 41,000 -48 Level Kansas City Center
Sat 12:03:04 PM 37.8644 -100.4319 297° West 462 532 40,900 -387 Descending Kansas City Center
Sat 12:04:06 PM 37.9183 -100.5697 296° West 460 529 40,200 -435 Descending Kansas City Center
Sat 12:05:08 PM 37.9817 -100.7289 297° West 458 527 40,000 -97 Descending Kansas City Center
Sat 12:06:10 PM 38.0353 -100.8689 296° West 462 532 40,000  Level Kansas City Center
Sat 12:07:12 PM 38.0975 -101.0342 296° West 467 537 40,000  Level Kansas City Center
Sat 12:08:14 PM 38.1519 -101.1744 296° West 465 535 40,000  Level Kansas City Center
Sat 12:08:50 PM 38.1869 -101.2686 295° West 467 537 40,000  Level Denver Center
Sat 12:09:52 PM 38.2414 -101.4100 296° West 467 537 40,000  Level Denver Center
Sat 12:10:54 PM 38.3053 -101.5756 296° West 466 536 40,000  Level Denver Center
Sat 12:11:56 PM 38.3592 -101.7194 296° West 471 542 40,000  Level Denver Center
Sat 12:12:58 PM 38.4242 -101.8844 297° West 468 539 40,000  Level Denver Center
Sat 12:14:00 PM 38.4878 -101.9903 308° West 470 541 40,000 -44 Level Denver Center
Sat 12:15:14 PM 38.5864 -102.1597 307° West 468 539 39,900 -832 Descending Denver Center
Sat 12:16:17 PM 38.6847 -102.3306 306° West 468 539 38,100 -2,208 Descending Denver Center
Sat 12:17:19 PM 38.7572 -102.4572 306° West 462 532 35,300 -1,984 Descending Denver Center
Sat 12:18:21 PM 38.8439 -102.6072 307° West 470 541 34,000 -629 Descending Denver Center
Sat 12:19:23 PM 38.9258 -102.7528 306° West 488 562 34,000  Level Denver Center
Sat 12:20:25 PM 39.0067 -102.8936 306° West 490 564 34,000  Level Denver Center
Sat 12:21:27 PM 39.0869 -103.0358 306° West 491 565 34,000  Level Denver Center
Sat 12:22:29 PM 39.1656 -103.1786 305° West 492 566 34,000  Level Denver Center
Sat 12:23:31 PM 39.2450 -103.3206 306° West 489 563 34,000  Level Denver Center
Sat 12:24:33 PM 39.3094 -103.4350 306° West 493 567 34,000  Level Denver Center
Sat 12:25:36 PM 39.4203 -103.6353 306° West 492 566 34,000  Level Denver Center
Sat 12:26:38 PM 39.5000 -103.7794 306° West 498 573 34,000 -145 Level Denver Center
Sat 12:27:40 PM 39.5642 -103.9392 298° West 502 578 33,700 -919 Descending Denver Center
Sat 12:28:42 PM 39.6408 -104.0856 304° West 494 568 32,100 -1,548 Descending Denver Center
Sat 12:29:44 PM 39.7244 -104.2283 307° West 499 574 30,500 -1,016 Descending Denver Center
Sat 12:30:46 PM 39.8225 -104.3958 307° West 489 563 30,000 -242 Descending Denver Center
Sat 12:31:48 PM 39.9014 -104.5389 306° West 491 565 30,000  Level Denver Center
Sat 12:32:50 PM 39.9631 -104.6922 298° West 483 556 30,000  Level Denver Center
Sat 12:33:52 PM 40.0108 -104.8628 290° West 488 562 30,000  Level Denver Center
Sat 12:34:54 PM 40.0467 -105.0686 283° West 489 563 30,000 -581 Level Denver Center
Sat 12:35:56 PM 40.0544 -105.2469 273° West 492 566 28,800 -1,548 Descending Denver Center
Sat 12:36:58 PM 40.0558 -105.4247 271° West 492 566 26,800 -1,984 Descending Denver Center
Sat 12:38:00 PM 40.0400 -105.5958 263° West 478 550 24,700 -1,645 Descending Denver Center
Sat 12:39:02 PM 40.0356 -105.7594 268° West 390 449 23,400 -1,632 Descending Denver Center
Sat 12:40:05 PM 40.0267 -105.8731 264° West 349 402 21,300 -2,338 Descending Denver Center
Sat 12:41:18 PM 40.0211 -106.0242 267° West 348 400 18,100 -2,533 Descending Denver Center
Sat 12:42:20 PM 40.0153 -106.1453 266° West 341 392 15,600 -1,968 Descending Denver Center
Sat 12:43:23 PM 40.0114 -106.2808 268° West 311 358 14,000 -768 Descending Denver Center
Sat 12:44:25 PM 39.9792 -106.3603 242° Southwest 276 318 14,000  Level Denver Center
Sat 12:45:27 PM 39.9414 -106.4381 238° Southwest 261 300 14,000  Level Denver Center
Sat 12:46:42 PM 39.8767 -106.4853 209° Southwest 265 305 14,000  Level Denver Center
Sat 12:47:44 PM 39.7956 -106.5289 202° Southwest 263 303 14,000 -293 Level Denver Center
Sat 12:48:45 PM 39.7408 -106.5547 200° South 261 300 13,400 -732 Descending Denver Center
Sat 12:49:47 PM 39.6864 -106.6153 221° Southwest 250 288 12,500 -1,344 Descending Denver Center
Sat 12:50:50 PM 39.6642 -106.7144 254° West 240 276 10,600 -1,824 Descending Denver Center
Sat 12:51:52 PM 39.6550 -106.8039 262° West 215 247 8,700 -1,645 Descending Denver Center
Sat 12:52:54 PM 39.6489 -106.8586 262° West 177 204 7,200 -1,065 Descending Denver Center
Sat 12:53:56 PM 39.6428 -106.9133 262° West 159 183 6,500 -677 Descending Denver Center

Login

Don't have an account? Register now (free) for customized features, flight alerts, and more!